Back to Squawk list
  • 10

5 Dead in Small Plane Crash in Lafayette, La., Official Says

Aggiunto
 
At least five people died after a small plane crashed next to a post office in Lafayette, La., on Saturday, the city’s Fire Department said. (www.nytimes.com) Altro...

Sort type: [Top] [Newest]


bbabis
bbabis 2
May they rest in peace. Such a tragic end to exciting plans.
nasdisco
Chris B 1
Video: https://www.youtube.com/watch?v=OYRCWHOwmB8

Passenger info https://people.com/sports/sports-reporter-carley-mccord-among-5-dead-louisiana-plane-crash/
v1v2
Jim Ward 1
Here is a link to more information on the incident.
Interesting comments at the end of the report.

http://www.kathrynsreport.com/2019/12/piper-pa-31t-cheyenne-ii-n42cv-fatal.html

Click on the top site.
v1v2
Jim Ward 1
Copy and paste this link into your search engine.

http://www.kathrynsreport.com/2019/12/piper-pa-31t-cheyenne-ii-n42cv-fatal.html
v1v2
Jim Ward 0
So sad. Heard about it while watching the game. Anyone know the type aircraft ? Weather at take off ?
rayzeeman
Piper Cheyenne 2, N42CV.
nathanhood1981
Nathan Hood 1
KLFT 281553Z VRB05KT 3/4SM BR VV002 20/19 A2996 RMK AO2 SLP146 ACFT MISHAP T02000194

KLFT 281551Z 15006KT 3/4SM BR VV002 20/19 A2997 RMK AO2 ACFT MISHAP

KLFT 281453Z 12005KT 3/4SM BR VV002 19/19 A2997 RMK AO2 SLP146 T01940189 53011
linbb
linbb -1
Stand by the FAA will release cause soon but feel free to speculate as always

Accedi

Non hai un account? Registrati adesso (è gratis) per usufruire di funzioni personalizzate, allarmi voli e molto altro!
Questo sito web utilizza cookie. Continuando a usare e a navigare su questo sito, accetti l'utilizzo dei cookie.
Chiudi
Sapevi che il tracking dei voli di FlightAware è supportato dalla pubblicità?
Puoi aiutarci a mantenere FlightAware gratuito accettando gli annunci pubblicitari di FlightAware.com. Ci impegniamo per far sì che i nostri annunci siano pertinenti e discreti per offrire la migliore esperienza. Aggiungere gli annunci ammessi su FlightAware è facile e veloce oppure puoi prendere in considerazione i nostri account premium.
Chiudi